azhyipmonitor.com alexa rank chart, azhyipmonitor.com alexa rank daily changes

azhyipmonitor.com alexa rank chart, azhyipmonitor.com alexa rank daily changes

azhyipmonitor.com
Actual rank:
274 036

RANK HISTORY

Date Rank Diff
2017/07/22 274 036 +3 372
2017/07/21 270 664 -296
2017/07/20 270 960 +14 714
2017/07/19 256 246 +9 514
2017/07/18 246 732 +3 021
2017/07/17 243 711 +2 309
2017/07/16 241 402 +301
2017/07/15 241 101 +289
2017/07/14 240 812 +3 817
2017/07/13 236 995 +7 237
2017/07/12 229 758 +2 245
2017/07/11 227 513 +5 407
2017/07/10 222 106 +4 376
2017/07/09 217 730 +9 619
2017/07/08 208 111 +4 885
2017/07/07 203 226 +2 780
2017/07/06 200 446 -937
2017/07/05 201 383 -896
2017/07/04 202 279 -483
2017/07/03 202 762 -1 357
2017/07/02 204 119 +3 552
2017/07/01 200 567 -1 167
2017/06/30 201 734 +4 306
2017/06/29 197 428 +4 028
2017/06/28 193 400 +6 654
2017/06/27 186 746 +1 782
2017/06/26 184 964 -2 760
2017/06/25 187 724 +7 863
2017/06/24 179 861 -1 012
2017/06/23 180 873 -161
2017/06/22 181 034 +36
2017/06/21 180 998 -821
2017/06/20 181 819 -4 294
2017/06/19 186 113 -5 637
2017/06/18 191 750 -1 727
2017/06/17 193 477 -1 613
2017/06/16 195 090 +1 587
2017/06/15 193 503 +4 610
2017/06/14 188 893 -726
2017/06/13 189 619 -8 881
2017/06/12 198 500 -819
2017/06/11 199 319 -5 041
2017/06/10 204 360 -11 712
2017/06/09 216 072 -6 980
2017/06/08 223 052 +2 100
2017/06/07 220 952 -851
2017/06/06 221 803 -2 634
2017/06/05 224 437 +4 251
2017/06/04 220 186 -709
2017/06/03 220 895 +6 120
2017/06/02 214 775 -942
2017/06/01 215 717 -3 678
2017/05/31 219 395 +2 464
2017/05/30 216 931 +1 500
2017/05/29 215 431 -900
2017/05/28 216 331 +2 527
2017/05/27 213 804 -2 304
2017/05/26 216 108 +6 862
2017/05/25 209 246 -12 499
2017/05/24 221 745 -1 097
2017/05/23 222 842

WIDGET FOR YOUR SITE

DOMAINS WITH THE NEAREST RANK

Domain Rank
antcha.in 274 031
silencertalk.com 274 032
loveheartbeat.com 274 033
headspace.org.au 274 034
zts.com.cn 274 035
azhyipmonitor.com 274 036
cenotavr-tm.com 274 037
speedlancer.com 274 038
sensaklub.hr 274 039
aussportsbetting.com 274 040
mobiline24.com 274 041

DOMAINS WITH THE NEAREST RANK BY TLD .com

Domain Rank
smartnora.com 274 026
retrooh.com 274 027
ultimatepatio.com 274 028
silencertalk.com 274 032
loveheartbeat.com 274 033
azhyipmonitor.com 274 036
cenotavr-tm.com 274 037
speedlancer.com 274 038
aussportsbetting.com 274 040
mobiline24.com 274 041
diycozyhome.com 274 042